Time;durP1;ratioP1;P1;durP2;ratioP2;P2;SDS_P1;SDS_P2;PMS_P1;PMS_P2;Temp;Humidity;BMP_temperature;BMP_pressure;BME280_temperature;BME280_humidity;BME280_pressure;Samples;Min_cycle;Max_cycle;Signal;HPM_P1;HPM_P2
2022/10/30 00:01:54;;;;;;;10.80;4.25;;;17.90;98.40;;;;;;4967639;28;20037;-78
2022/10/30 00:04:20;;;;;;;15.57;3.60;;;17.90;98.50;;;;;;4969367;28;20143;-78
2022/10/30 00:06:45;;;;;;;10.05;3.58;;;17.80;98.20;;;;;;4954782;28;20451;-78
2022/10/30 00:09:11;;;;;;;9.75;3.70;;;17.80;98.40;;;;;;4952292;28;20581;-78
2022/10/30 00:11:36;;;;;;;8.48;3.40;;;17.80;98.40;;;;;;4966894;28;20118;-78
2022/10/30 00:14:02;;;;;;;11.40;3.50;;;17.80;98.40;;;;;;4967035;28;20029;-78
2022/10/30 00:16:28;;;;;;;19.00;5.72;;;17.80;98.40;;;;;;4952042;28;20125;-78
2022/10/30 00:18:53;;;;;;;13.07;4.28;;;17.80;98.40;;;;;;4979947;28;20382;-78
2022/10/30 00:21:19;;;;;;;10.25;4.40;;;17.80;98.40;;;;;;4967571;28;20478;-78
2022/10/30 00:23:48;;;;;;;14.02;4.03;;;17.80;98.50;;;;;;4984275;28;20042;-78
2022/10/30 00:26:14;;;;;;;10.85;3.58;;;17.80;98.20;;;;;;4968676;28;20518;-78
2022/10/30 00:28:40;;;;;;;10.85;4.10;;;17.70;98.70;;;;;;4951460;28;20058;-78
2022/10/30 00:31:05;;;;;;;9.15;3.80;;;17.70;98.90;;;;;;4971005;28;20117;-78
2022/10/30 00:33:31;;;;;;;11.27;4.85;;;17.60;98.80;;;;;;4963631;28;20122;-78
2022/10/30 00:35:56;;;;;;;17.45;4.05;;;17.60;98.80;;;;;;4967245;28;20027;-78
2022/10/30 00:38:22;;;;;;;7.68;3.78;;;17.70;98.80;;;;;;4967263;28;20072;-78
2022/10/30 00:40:48;;;;;;;9.10;3.92;;;17.60;98.90;;;;;;4982347;28;20037;-78
2022/10/30 00:43:34;;;;;;;12.90;3.95;;;17.60;98.90;;;;;;4961711;28;20034;-78
2022/10/30 00:46:02;;;;;;;11.25;4.10;;;17.60;98.70;;;;;;4963799;28;20034;-78
2022/10/30 00:48:27;;;;;;;9.02;3.75;;;17.60;98.90;;;;;;4963420;28;20038;-78
2022/10/30 00:50:53;;;;;;;15.27;4.35;;;17.60;99.10;;;;;;4947076;28;20027;-78
2022/10/30 00:53:18;;;;;;;9.43;3.95;;;17.60;98.90;;;;;;4947354;28;20034;-78
2022/10/30 00:55:55;;;;;;;9.88;3.90;;;17.60;98.80;;;;;;4966381;28;20513;-77
2022/10/30 00:58:27;;;;;;;15.90;5.13;;;17.50;99.20;;;;;;4962844;28;20034;-78
2022/10/30 01:00:55;;;;;;;12.98;3.88;;;17.50;99.10;;;;;;4947936;28;20026;-78
2022/10/30 01:03:21;;;;;;;13.60;4.40;;;17.40;98.90;;;;;;4949777;28;20109;-78
2022/10/30 01:05:48;;;;;;;9.65;3.40;;;17.50;99.20;;;;;;4953801;28;20482;-77
2022/10/30 01:08:13;;;;;;;9.20;3.65;;;17.50;99.40;;;;;;4962876;28;20102;-77
2022/10/30 01:10:39;;;;;;;11.27;3.50;;;17.40;99.40;;;;;;4979280;28;20034;-77
2022/10/30 01:13:04;;;;;;;8.20;3.58;;;17.40;99.30;;;;;;4963281;28;20077;-77
2022/10/30 01:15:34;;;;;;;9.73;3.42;;;17.40;99.30;;;;;;4954376;28;20434;-77
2022/10/30 01:18:07;;;;;;;12.63;3.92;;;17.40;99.40;;;;;;4956130;28;20836;-77
2022/10/30 01:20:54;;;;;;;14.30;3.28;;;17.40;99.40;;;;;;4951725;28;20042;-77
2022/10/30 01:23:47;;;;;;;12.23;4.38;;;17.30;99.60;;;;;;4965068;28;20047;-77
2022/10/30 01:26:25;;;;;;;7.82;2.90;;;17.20;99.50;;;;;;4959325;28;20034;-76
2022/10/30 01:29:25;;;;;;;6.80;3.33;;;17.20;99.80;;;;;;4946416;28;20039;-77
2022/10/30 01:32:15;;;;;;;13.32;4.00;;;17.20;99.90;;;;;;4962504;28;20038;-77
2022/10/30 01:34:51;;;;;;;10.70;3.63;;;17.10;99.80;;;;;;4977935;28;20031;-77
2022/10/30 01:37:39;;;;;;;11.35;4.13;;;16.90;99.90;;;;;;4965181;28;20386;-78
2022/10/30 01:40:09;;;;;;;12.52;3.95;;;16.90;99.90;;;;;;4965576;28;20501;-77
2022/10/30 01:42:53;;;;;;;14.23;3.63;;;16.90;99.90;;;;;;4981739;28;20039;-78
2022/10/30 01:45:24;;;;;;;10.65;3.70;;;16.90;99.90;;;;;;4967624;28;20113;-77
2022/10/30 01:47:53;;;;;;;15.65;4.53;;;17.00;99.90;;;;;;4949744;28;20039;-78
2022/10/30 01:50:31;;;;;;;11.27;3.13;;;16.90;99.90;;;;;;4965059;28;20026;-78
2022/10/30 01:53:15;;;;;;;8.63;3.50;;;16.90;99.90;;;;;;4948181;28;20034;-78
2022/10/30 01:55:40;;;;;;;13.27;3.72;;;16.90;99.90;;;;;;4965618;28;20449;-78
2022/10/30 01:58:30;;;;;;;10.63;3.47;;;16.70;99.90;;;;;;4978218;28;20027;-78
2022/10/30 02:00:56;;;;;;;9.70;3.45;;;16.70;99.90;;;;;;4965382;28;20039;-78
2022/10/30 02:03:22;;;;;;;10.05;4.00;;;16.70;99.90;;;;;;4933669;28;20494;-78
2022/10/30 02:05:49;;;;;;;10.35;3.58;;;16.70;99.90;;;;;;4960491;28;20038;-78
2022/10/30 02:08:15;;;;;;;11.07;4.47;;;16.60;99.90;;;;;;4961670;28;20580;-78
2022/10/30 02:10:41;;;;;;;16.08;4.40;;;16.50;99.90;;;;;;4951174;28;20023;-78
2022/10/30 02:13:06;;;;;;;10.50;3.58;;;16.40;99.90;;;;;;4951077;28;20038;-78
2022/10/30 02:15:32;;;;;;;13.20;3.80;;;16.30;99.90;;;;;;4974252;28;20034;-78
2022/10/30 02:17:58;;;;;;;9.02;3.90;;;16.20;99.90;;;;;;4945853;28;20047;-78
2022/10/30 02:20:23;;;;;;;11.20;3.85;;;16.20;99.90;;;;;;4964926;28;20058;-78
2022/10/30 02:22:49;;;;;;;8.90;4.00;;;16.10;99.90;;;;;;4946900;28;20073;-77
2022/10/30 02:25:14;;;;;;;16.38;4.47;;;16.10;99.90;;;;;;4959146;28;20483;-78
2022/10/30 02:27:40;;;;;;;11.57;4.30;;;16.00;99.90;;;;;;4980280;28;20060;-78
2022/10/30 02:30:06;;;;;;;19.73;5.07;;;16.10;99.90;;;;;;4948429;28;20064;-78
2022/10/30 02:32:32;;;;;;;13.38;3.47;;;16.10;99.90;;;;;;4960122;28;20553;-78
2022/10/30 02:34:57;;;;;;;9.77;4.18;;;16.00;99.90;;;;;;4966519;28;20035;-78
2022/10/30 02:37:23;;;;;;;15.02;4.10;;;16.10;99.90;;;;;;4962316;28;20045;-78
2022/10/30 02:39:49;;;;;;;15.30;3.90;;;16.10;99.90;;;;;;4980480;28;20026;-78
2022/10/30 02:42:14;;;;;;;10.23;4.05;;;16.20;99.90;;;;;;4950355;28;20117;-77
2022/10/30 02:44:40;;;;;;;8.85;3.67;;;16.20;99.90;;;;;;4978842;28;20026;-78
2022/10/30 02:47:05;;;;;;;8.13;4.10;;;16.00;99.90;;;;;;4948420;28;20118;-78
2022/10/30 02:49:31;;;;;;;9.80;4.22;;;16.00;99.90;;;;;;4947225;28;20373;-77
2022/10/30 02:51:56;;;;;;;18.40;5.07;;;16.10;99.90;;;;;;4964565;28;20545;-78
2022/10/30 02:54:22;;;;;;;14.88;3.90;;;16.00;99.90;;;;;;4981483;28;20494;-78
2022/10/30 02:56:48;;;;;;;9.68;4.18;;;16.10;99.90;;;;;;4946456;28;20050;-78
2022/10/30 02:59:13;;;;;;;11.93;4.13;;;15.90;99.90;;;;;;4961000;28;20039;-77
2022/10/30 03:01:39;;;;;;;11.68;4.55;;;15.80;99.90;;;;;;4961676;28;20122;-78
2022/10/30 03:04:04;;;;;;;11.00;3.97;;;15.90;99.90;;;;;;4955370;28;20039;-78
2022/10/30 03:06:30;;;;;;;12.55;4.65;;;15.80;99.90;;;;;;4951593;28;20054;-78
2022/10/30 03:08:55;;;;;;;15.50;4.55;;;15.70;99.90;;;;;;4945146;28;20092;-78
2022/10/30 03:11:21;;;;;;;19.35;4.85;;;15.80;99.90;;;;;;4979011;28;20030;-78
2022/10/30 03:13:47;;;;;;;12.93;4.50;;;15.70;99.90;;;;;;4976786;28;20085;-77
2022/10/30 03:16:20;;;;;;;12.85;4.35;;;15.70;99.90;;;;;;4948473;28;20494;-78
2022/10/30 03:18:46;;;;;;;11.65;3.80;;;15.70;99.90;;;;;;4951628;28;20033;-78
2022/10/30 03:21:13;;;;;;;12.88;4.10;;;15.80;99.90;;;;;;4946963;28;20030;-77
2022/10/30 03:23:39;;;;;;;9.38;4.43;;;15.90;99.90;;;;;;4961300;28;20054;-78
2022/10/30 03:26:05;;;;;;;11.20;4.07;;;15.90;99.90;;;;;;4960772;28;20521;-78
2022/10/30 03:28:30;;;;;;;7.57;3.25;;;15.90;99.90;;;;;;4975054;28;20433;-78
2022/10/30 03:31:00;;;;;;;16.83;4.60;;;15.80;99.90;;;;;;4950214;28;20038;-77
2022/10/30 03:33:26;;;;;;;7.32;3.55;;;15.80;99.90;;;;;;4952230;28;20038;-77
2022/10/30 03:35:51;;;;;;;7.28;3.60;;;15.70;99.90;;;;;;4946613;28;20078;-77
2022/10/30 03:38:17;;;;;;;8.68;4.22;;;15.70;99.90;;;;;;4944654;28;20068;-77
2022/10/30 03:40:42;;;;;;;9.82;3.83;;;15.80;99.90;;;;;;4948113;28;20087;-77
2022/10/30 03:43:09;;;;;;;12.15;4.43;;;15.70;99.90;;;;;;4961671;28;20035;-77
2022/10/30 03:45:35;;;;;;;12.50;4.57;;;15.70;99.90;;;;;;4975015;28;20027;-77
2022/10/30 03:48:01;;;;;;;14.90;4.78;;;15.70;99.90;;;;;;4950646;28;20113;-76
2022/10/30 03:50:27;;;;;;;11.48;4.40;;;15.70;99.90;;;;;;4949070;28;20113;-77
2022/10/30 03:52:53;;;;;;;14.48;4.80;;;15.70;99.90;;;;;;4964617;28;20085;-77
2022/10/30 03:55:19;;;;;;;15.65;4.90;;;15.60;99.90;;;;;;4948087;28;20085;-77
2022/10/30 03:57:44;;;;;;;17.42;4.75;;;15.60;99.90;;;;;;4976678;28;20462;-77
2022/10/30 04:00:12;;;;;;;14.80;4.25;;;15.60;99.90;;;;;;4943074;28;20049;-77
2022/10/30 04:02:38;;;;;;;17.20;4.85;;;15.60;99.90;;;;;;4948549;28;20073;-77
2022/10/30 04:05:04;;;;;;;9.52;4.03;;;15.60;99.90;;;;;;4965940;28;20046;-78
2022/10/30 04:07:29;;;;;;;12.10;3.80;;;15.50;99.90;;;;;;4964531;28;20390;-77
2022/10/30 04:09:55;;;;;;;12.45;4.60;;;15.50;99.90;;;;;;4961569;28;20439;-77
2022/10/30 04:12:20;;;;;;;5.82;3.50;;;15.50;99.90;;;;;;4961043;28;20037;-77
2022/10/30 04:14:46;;;;;;;7.88;3.53;;;15.50;99.90;;;;;;4936563;28;20498;-77
2022/10/30 04:17:12;;;;;;;11.63;4.28;;;15.50;99.90;;;;;;4964397;28;20441;-77
2022/10/30 04:19:37;;;;;;;8.90;4.18;;;15.40;99.90;;;;;;4932212;28;20030;-77
2022/10/30 04:22:03;;;;;;;13.10;4.80;;;15.40;99.90;;;;;;4953058;28;20030;-77
2022/10/30 04:24:28;;;;;;;10.07;4.65;;;15.40;99.90;;;;;;4967236;28;20038;-77
2022/10/30 04:26:54;;;;;;;11.82;3.80;;;15.20;99.90;;;;;;4969397;28;20031;-77
2022/10/30 04:29:19;;;;;;;10.63;4.78;;;15.10;99.90;;;;;;4966579;28;20026;-77
2022/10/30 04:31:45;;;;;;;8.35;3.67;;;15.10;99.90;;;;;;4964675;28;20042;-77
2022/10/30 04:34:11;;;;;;;10.75;4.05;;;15.10;99.90;;;;;;4981950;28;20026;-77
2022/10/30 04:36:36;;;;;;;11.48;4.68;;;15.20;99.90;;;;;;4963878;28;20023;-78
2022/10/30 04:39:02;;;;;;;11.05;4.32;;;15.20;99.90;;;;;;4949748;28;20031;-78
2022/10/30 04:41:28;;;;;;;13.55;4.78;;;15.20;99.90;;;;;;4964734;28;20063;-77
2022/10/30 04:43:53;;;;;;;14.57;4.20;;;15.20;99.90;;;;;;4951332;28;20637;-77
2022/10/30 04:46:19;;;;;;;10.52;3.78;;;15.10;99.90;;;;;;4951578;28;20053;-77
2022/10/30 04:48:44;;;;;;;15.48;3.70;;;15.00;99.90;;;;;;4962407;28;20146;-77
2022/10/30 04:51:10;;;;;;;8.82;4.32;;;15.10;99.90;;;;;;4951563;28;20117;-77
2022/10/30 04:53:36;;;;;;;14.70;4.05;;;15.10;99.90;;;;;;4981256;28;20252;-78
2022/10/30 04:56:02;;;;;;;12.95;4.78;;;15.10;99.90;;;;;;4965654;28;20121;-77
2022/10/30 04:58:28;;;;;;;13.82;5.40;;;14.90;99.90;;;;;;4960361;28;20574;-77
2022/10/30 05:00:53;;;;;;;14.23;5.05;;;14.80;99.90;;;;;;4963156;28;20050;-77
2022/10/30 05:03:22;;;;;;;6.50;4.13;;;14.80;99.90;;;;;;4971728;28;20042;-78
2022/10/30 05:05:55;;;;;;;11.93;5.20;;;14.80;99.90;;;;;;4966625;28;20139;-77
2022/10/30 05:08:21;;;;;;;13.45;5.43;;;14.80;99.90;;;;;;4964218;28;20065;-78
2022/10/30 05:10:46;;;;;;;14.77;4.18;;;14.50;99.90;;;;;;4962309;28;20793;-78
2022/10/30 05:13:12;;;;;;;10.77;4.53;;;14.50;99.90;;;;;;4969207;28;20038;-77
2022/10/30 05:15:37;;;;;;;10.13;3.90;;;14.50;99.90;;;;;;4948532;28;20082;-78
2022/10/30 05:18:03;;;;;;;7.78;3.95;;;14.50;99.90;;;;;;4952864;28;20034;-78
2022/10/30 05:20:28;;;;;;;11.32;4.30;;;14.50;99.90;;;;;;4946431;28;20039;-78
2022/10/30 05:22:58;;;;;;;14.55;4.97;;;14.50;99.90;;;;;;4949821;28;20057;-78
2022/10/30 05:25:23;;;;;;;8.32;4.97;;;14.40;99.90;;;;;;4945421;28;20038;-78
2022/10/30 05:27:49;;;;;;;9.70;4.60;;;14.40;99.90;;;;;;4964234;28;20030;-78
2022/10/30 05:30:15;;;;;;;11.00;4.75;;;14.50;99.90;;;;;;4964910;28;20375;-77
2022/10/30 05:32:40;;;;;;;12.52;5.85;;;14.60;99.90;;;;;;4962149;28;20399;-77
2022/10/30 05:35:06;;;;;;;13.35;5.68;;;14.50;99.90;;;;;;4963999;28;20114;-78
2022/10/30 05:37:32;;;;;;;11.98;5.20;;;14.40;99.90;;;;;;4962044;28;20062;-77
2022/10/30 05:39:57;;;;;;;8.48;4.20;;;14.20;99.90;;;;;;4962704;28;20026;-77
2022/10/30 05:42:23;;;;;;;11.85;4.60;;;14.20;99.90;;;;;;4980775;28;20137;-78
2022/10/30 05:44:48;;;;;;;10.15;4.57;;;14.50;99.90;;;;;;4963054;28;20058;-77
2022/10/30 05:47:14;;;;;;;12.60;6.35;;;14.30;99.90;;;;;;4936078;28;20398;-77
2022/10/30 05:49:40;;;;;;;12.73;5.47;;;14.30;99.90;;;;;;4955134;28;20039;-77
2022/10/30 05:52:05;;;;;;;15.40;4.95;;;14.20;99.90;;;;;;4940658;28;20147;-78
2022/10/30 05:54:31;;;;;;;11.35;4.95;;;14.10;99.90;;;;;;4966047;28;20046;-77
2022/10/30 05:56:57;;;;;;;14.60;5.45;;;14.00;99.90;;;;;;4961980;28;20033;-77
2022/10/30 05:59:23;;;;;;;11.25;5.10;;;13.80;99.90;;;;;;4981094;28;20074;-77
2022/10/30 06:01:48;;;;;;;12.30;5.65;;;13.70;99.90;;;;;;4966118;28;20482;-76
2022/10/30 06:04:14;;;;;;;15.20;5.70;;;13.60;99.90;;;;;;4960398;28;20089;-77
2022/10/30 06:06:39;;;;;;;13.98;5.50;;;13.50;99.90;;;;;;4964785;28;20034;-77
2022/10/30 06:09:05;;;;;;;19.92;5.97;;;13.40;99.90;;;;;;4957669;28;20522;-77
2022/10/30 06:11:30;;;;;;;16.98;6.18;;;13.30;99.90;;;;;;4976436;28;20402;-77
2022/10/30 06:13:56;;;;;;;11.48;5.47;;;13.40;99.90;;;;;;4946829;28;20035;-77
2022/10/30 06:16:22;;;;;;;16.02;6.13;;;13.30;99.90;;;;;;4932062;28;20039;-76
2022/10/30 06:18:48;;;;;;;15.15;5.93;;;13.40;99.90;;;;;;4944916;28;20786;-77
2022/10/30 06:21:13;;;;;;;17.40;6.75;;;13.30;99.90;;;;;;4963470;28;20057;-78
2022/10/30 06:23:39;;;;;;;14.82;5.68;;;13.20;99.90;;;;;;4959542;28;20042;-77
2022/10/30 06:26:07;;;;;;;18.60;6.10;;;13.00;99.90;;;;;;4916586;28;20092;-77
2022/10/30 06:28:32;;;;;;;14.18;6.30;;;13.10;99.90;;;;;;4968259;28;20093;-77
2022/10/30 06:30:58;;;;;;;11.05;5.95;;;13.00;99.90;;;;;;4944564;28;20034;-77
2022/10/30 06:33:24;;;;;;;17.10;6.25;;;13.00;99.90;;;;;;4948204;28;20022;-77
2022/10/30 06:35:50;;;;;;;13.57;6.22;;;12.90;99.90;;;;;;4961461;28;20058;-78
2022/10/30 06:38:16;;;;;;;15.40;7.00;;;12.90;99.90;;;;;;4946363;28;20475;-78
2022/10/30 06:40:41;;;;;;;9.75;5.28;;;12.90;99.90;;;;;;4950264;28;20026;-78
2022/10/30 06:43:07;;;;;;;16.60;6.47;;;12.90;99.90;;;;;;4949540;28;20125;-77
2022/10/30 06:45:33;;;;;;;7.93;4.80;;;13.10;99.90;;;;;;4954864;28;20058;-77
2022/10/30 06:48:02;;;;;;;16.67;6.60;;;13.20;99.90;;;;;;4951743;28;20077;-77
2022/10/30 06:50:27;;;;;;;9.70;4.97;;;13.30;99.90;;;;;;4943113;28;20070;-77
2022/10/30 06:52:54;;;;;;;8.23;4.72;;;13.30;99.90;;;;;;4952390;28;20065;-78
2022/10/30 06:55:23;;;;;;;10.77;4.68;;;13.40;99.90;;;;;;4924734;28;20057;-77
2022/10/30 06:57:55;;;;;;;14.82;6.47;;;13.40;99.90;;;;;;4954290;28;20413;-77
2022/10/30 07:00:20;;;;;;;14.98;6.22;;;13.40;99.90;;;;;;4950237;28;20030;-77
2022/10/30 07:02:55;;;;;;;12.07;6.47;;;13.20;99.90;;;;;;4966734;28;20513;-77
2022/10/30 07:05:23;;;;;;;16.05;6.20;;;13.20;99.90;;;;;;4950218;28;20065;-76
2022/10/30 07:07:49;;;;;;;21.00;6.45;;;13.30;99.90;;;;;;4970854;28;20097;-76
2022/10/30 07:10:14;;;;;;;14.88;6.18;;;13.20;99.90;;;;;;4951346;28;20162;-77
2022/10/30 07:12:40;;;;;;;8.88;5.25;;;13.20;99.90;;;;;;4978006;28;20030;-76
2022/10/30 07:15:06;;;;;;;7.72;4.38;;;13.40;99.90;;;;;;4962118;28;21111;-77
2022/10/30 07:17:32;;;;;;;12.82;6.40;;;13.40;99.90;;;;;;4937056;28;20039;-77
2022/10/30 07:19:57;;;;;;;17.00;5.88;;;13.50;99.90;;;;;;4962503;28;20077;-78
2022/10/30 07:22:23;;;;;;;13.35;6.32;;;13.40;99.90;;;;;;4951821;28;20126;-76
2022/10/30 07:24:48;;;;;;;18.88;6.00;;;13.30;99.90;;;;;;4942322;28;20629;-76
2022/10/30 07:27:17;;;;;;;15.52;6.93;;;13.30;99.90;;;;;;4966141;28;20427;-76
2022/10/30 07:29:42;;;;;;;10.85;4.80;;;13.40;99.90;;;;;;4952261;28;20034;-76
2022/10/30 07:32:11;;;;;;;12.60;5.53;;;13.60;99.90;;;;;;4965391;28;20031;-77
2022/10/30 07:34:36;;;;;;;11.20;5.07;;;13.70;99.90;;;;;;4936438;28;20035;-77
2022/10/30 07:37:02;;;;;;;15.20;5.57;;;13.70;99.90;;;;;;4979575;28;20031;-76
2022/10/30 07:39:28;;;;;;;10.23;5.22;;;13.80;99.90;;;;;;4955759;28;20082;-77
2022/10/30 07:41:53;;;;;;;13.88;4.80;;;13.90;99.90;;;;;;4976344;28;20035;-77
2022/10/30 07:44:21;;;;;;;14.25;4.97;;;14.10;99.90;;;;;;4945675;28;20043;-76
2022/10/30 07:46:46;;;;;;;16.13;5.63;;;14.20;99.90;;;;;;4945830;28;20081;-76
2022/10/30 07:49:12;;;;;;;10.57;5.18;;;14.10;99.90;;;;;;4962619;28;20490;-76
2022/10/30 07:51:39;;;;;;;10.05;6.28;;;14.20;99.90;;;;;;4945089;28;20039;-78
2022/10/30 07:54:04;;;;;;;20.67;5.70;;;14.30;99.90;;;;;;4965535;28;20038;-77
2022/10/30 07:56:30;;;;;;;10.07;4.90;;;14.40;99.90;;;;;;4943687;28;20453;-77
2022/10/30 07:58:55;;;;;;;9.35;3.78;;;14.50;99.90;;;;;;4956356;28;20487;-77
2022/10/30 08:01:21;;;;;;;11.35;5.05;;;14.50;99.90;;;;;;4964623;28;20080;-76
2022/10/30 08:03:49;;;;;;;10.80;4.57;;;14.60;99.90;;;;;;4963570;28;20420;-77
2022/10/30 08:06:15;;;;;;;7.85;4.95;;;14.80;99.90;;;;;;4951260;28;20037;-76
2022/10/30 08:08:40;;;;;;;9.55;4.25;;;14.90;99.90;;;;;;4952667;28;20042;-77
2022/10/30 08:11:06;;;;;;;9.32;5.35;;;15.00;99.90;;;;;;4957008;28;20034;-77
2022/10/30 08:13:34;;;;;;;19.27;6.18;;;15.10;99.90;;;;;;4948538;28;20038;-77
2022/10/30 08:16:01;;;;;;;8.75;4.72;;;15.20;99.90;;;;;;4963146;28;20081;-77
2022/10/30 08:18:26;;;;;;;12.73;5.10;;;15.30;99.90;;;;;;4951201;28;20038;-77
2022/10/30 08:20:54;;;;;;;11.10;4.90;;;15.30;99.90;;;;;;4966169;28;20038;-77
2022/10/30 08:23:20;;;;;;;10.27;4.45;;;15.50;99.90;;;;;;4931327;28;20490;-77
2022/10/30 08:25:55;;;;;;;11.23;4.43;;;15.70;99.90;;;;;;4969067;28;20434;-77
2022/10/30 08:28:21;;;;;;;10.15;4.95;;;16.10;99.90;;;;;;4967713;28;20034;-77
2022/10/30 08:30:46;;;;;;;11.50;5.38;;;16.10;99.90;;;;;;4979508;28;20042;-77
2022/10/30 08:33:13;;;;;;;7.32;4.15;;;16.30;99.90;;;;;;4966715;28;20458;-78
2022/10/30 08:35:46;;;;;;;8.45;4.55;;;16.20;99.90;;;;;;4980511;28;20106;-77
2022/10/30 08:38:12;;;;;;;9.23;3.95;;;16.30;99.90;;;;;;4980472;28;20515;-77
2022/10/30 08:40:37;;;;;;;8.55;4.25;;;16.70;99.90;;;;;;4981822;28;20072;-77
2022/10/30 08:43:03;;;;;;;10.15;3.83;;;17.20;99.90;;;;;;4980805;28;20085;-76
2022/10/30 08:45:28;;;;;;;8.60;4.93;;;17.20;99.90;;;;;;4980711;28;20061;-77
2022/10/30 08:47:58;;;;;;;15.38;4.75;;;17.30;99.90;;;;;;4976542;28;20038;-77
2022/10/30 08:50:23;;;;;;;9.45;4.45;;;17.50;99.90;;;;;;4967766;28;20527;-77
2022/10/30 08:52:49;;;;;;;7.78;4.07;;;17.40;99.90;;;;;;4984587;28;20118;-77
2022/10/30 08:55:14;;;;;;;6.30;3.63;;;17.30;99.90;;;;;;4964846;28;20046;-76
2022/10/30 08:57:40;;;;;;;14.65;3.70;;;17.60;99.90;;;;;;4950783;28;20058;-77
2022/10/30 09:00:06;;;;;;;11.50;4.22;;;18.10;99.90;;;;;;4953254;28;20535;-77
2022/10/30 09:02:32;;;;;;;9.57;4.20;;;18.00;99.90;;;;;;4948743;28;20042;-77
2022/10/30 09:04:57;;;;;;;14.80;4.13;;;18.30;99.90;;;;;;4951373;28;20398;-78
2022/10/30 09:07:23;;;;;;;8.73;3.85;;;18.50;99.90;;;;;;4966453;28;20495;-77
2022/10/30 09:09:48;;;;;;;11.35;3.97;;;18.70;99.90;;;;;;4981265;28;20066;-77
2022/10/30 09:12:15;;;;;;;14.70;4.47;;;18.60;99.90;;;;;;4954543;28;20483;-77
2022/10/30 09:14:42;;;;;;;14.13;5.55;;;18.90;99.90;;;;;;4951979;28;20125;-77
2022/10/30 09:17:07;;;;;;;7.90;4.28;;;19.00;99.90;;;;;;4983972;28;20458;-77
2022/10/30 09:19:33;;;;;;;9.25;3.70;;;19.30;99.90;;;;;;4965231;28;20027;-77
2022/10/30 09:21:58;;;;;;;11.00;4.10;;;19.20;99.90;;;;;;4964957;28;20038;-77
2022/10/30 09:24:24;;;;;;;13.93;3.90;;;19.80;99.90;;;;;;4984249;28;20045;-77
2022/10/30 09:26:50;;;;;;;12.13;3.85;;;20.00;99.90;;;;;;4953021;28;20086;-78
2022/10/30 09:29:16;;;;;;;12.70;4.00;;;20.20;99.90;;;;;;4962568;28;20035;-77
2022/10/30 09:31:41;;;;;;;7.90;3.35;;;20.30;99.90;;;;;;4950483;28;20093;-77
2022/10/30 09:34:07;;;;;;;10.48;4.13;;;20.20;99.90;;;;;;4963043;28;20054;-79
2022/10/30 09:36:32;;;;;;;11.32;3.90;;;20.30;99.90;;;;;;4962835;28;20041;-77
2022/10/30 09:38:58;;;;;;;9.07;4.05;;;20.30;99.90;;;;;;4964593;28;20069;-77
2022/10/30 09:41:48;;;;;;;9.38;3.72;;;20.60;99.90;;;;;;4962087;28;20061;-77
2022/10/30 09:44:33;;;;;;;9.68;3.90;;;20.80;99.90;;;;;;4959100;28;20046;-77
2022/10/30 09:47:07;;;;;;;13.32;3.85;;;21.10;99.90;;;;;;4963456;28;20031;-77
2022/10/30 09:49:38;;;;;;;16.83;3.97;;;21.00;99.90;;;;;;4981815;28;20058;-77
2022/10/30 09:52:33;;;;;;;8.82;3.90;;;21.00;99.90;;;;;;4980041;28;20143;-77
2022/10/30 09:55:14;;;;;;;13.07;4.18;;;21.00;99.90;;;;;;4963522;28;20444;-79
2022/10/30 09:58:05;;;;;;;15.50;4.10;;;21.30;99.90;;;;;;4984132;28;20034;-77
2022/10/30 10:00:37;;;;;;;11.18;4.32;;;22.10;99.90;;;;;;4962382;28;20041;-76
2022/10/30 10:03:34;;;;;;;13.13;4.32;;;22.10;99.90;;;;;;4961822;28;20045;-77
2022/10/30 10:06:00;;;;;;;10.10;3.55;;;21.80;99.90;;;;;;4967932;28;20031;-78
2022/10/30 10:08:38;;;;;;;6.05;3.60;;;22.30;99.90;;;;;;4950204;28;20454;-76
2022/10/30 10:11:22;;;;;;;11.80;4.63;;;22.00;99.90;;;;;;4952911;28;20030;-76
2022/10/30 10:13:57;;;;;;;8.23;4.40;;;21.90;99.90;;;;;;4962863;28;20035;-76
2022/10/30 10:16:30;;;;;;;10.45;3.65;;;21.90;99.90;;;;;;4945782;28;20039;-77
2022/10/30 10:19:06;;;;;;;7.68;3.63;;;22.40;99.90;;;;;;4962949;28;20031;-76
2022/10/30 10:21:34;;;;;;;8.32;3.33;;;22.50;99.90;;;;;;4966651;28;20046;-77
2022/10/30 10:24:01;;;;;;;8.13;3.85;;;22.30;99.90;;;;;;4963852;28;20053;-76
2022/10/30 10:26:33;;;;;;;7.00;3.40;;;22.70;99.90;;;;;;4938396;28;20029;-76
2022/10/30 10:29:19;;;;;;;14.07;3.80;;;23.00;99.90;;;;;;4961530;28;20137;-77
2022/10/30 10:32:07;;;;;;;14.02;4.30;;;23.30;99.90;;;;;;4962153;28;20399;-80
2022/10/30 10:34:39;;;;;;;18.60;4.43;;;23.20;99.90;;;;;;4979070;28;20499;-78
2022/10/30 10:37:33;;;;;;;13.80;4.00;;;23.50;99.90;;;;;;4977339;28;20155;-80
2022/10/30 10:40:16;;;;;;;14.80;4.13;;;23.50;99.90;;;;;;4935848;28;20564;-79
2022/10/30 10:43:04;;;;;;;12.88;4.35;;;23.70;99.90;;;;;;4966062;28;20067;-79
2022/10/30 10:46:02;;;;;;;7.82;3.88;;;24.10;99.30;;;;;;4966347;28;20524;-80
2022/10/30 10:49:01;;;;;;;13.82;3.45;;;24.10;99.60;;;;;;4964443;28;20038;-78
2022/10/30 10:51:33;;;;;;;26.45;4.60;;;24.40;98.00;;;;;;4960769;28;20035;-78
2022/10/30 10:54:04;;;;;;;12.40;3.65;;;24.40;97.80;;;;;;4964566;28;20030;-79
2022/10/30 10:56:35;;;;;;;9.63;3.35;;;24.40;97.60;;;;;;4963243;28;20026;-78
2022/10/30 10:59:03;;;;;;;7.72;3.05;;;24.60;97.60;;;;;;4946116;28;20070;-78
2022/10/30 11:01:37;;;;;;;10.88;3.28;;;24.80;96.20;;;;;;4948599;28;20042;-78
2022/10/30 11:04:17;;;;;;;7.75;3.33;;;25.10;96.20;;;;;;4950089;28;20030;-78
2022/10/30 11:06:45;;;;;;;17.15;3.95;;;24.90;95.40;;;;;;4959538;28;20503;-78
2022/10/30 11:09:15;;;;;;;16.13;3.90;;;25.10;95.80;;;;;;4950600;28;20046;-78
2022/10/30 11:11:41;;;;;;;13.27;3.33;;;25.20;94.50;;;;;;4977035;28;20117;-78
2022/10/30 11:14:14;;;;;;;7.85;3.75;;;25.20;94.90;;;;;;4959845;28;20066;-78
2022/10/30 11:16:48;;;;;;;9.30;2.90;;;25.10;95.60;;;;;;4950497;28;20038;-78
2022/10/30 11:19:14;;;;;;;9.90;3.10;;;25.70;93.50;;;;;;4980826;28;20394;-78
2022/10/30 11:21:47;;;;;;;14.25;3.90;;;25.70;93.30;;;;;;4946063;28;20031;-78
2022/10/30 11:24:28;;;;;;;15.60;3.33;;;25.70;93.00;;;;;;4965155;28;20039;-78
2022/10/30 11:26:55;;;;;;;9.75;3.50;;;25.60;92.10;;;;;;4945083;28;20089;-78
2022/10/30 11:29:26;;;;;;;9.65;2.88;;;25.70;92.50;;;;;;4961801;28;20658;-78
2022/10/30 11:32:02;;;;;;;12.02;3.55;;;25.90;91.40;;;;;;4948478;28;20041;-78
2022/10/30 11:34:35;;;;;;;8.10;3.17;;;25.80;91.90;;;;;;4949243;28;20383;-78
2022/10/30 11:37:01;;;;;;;10.60;3.13;;;25.80;91.70;;;;;;4960127;28;20081;-78
2022/10/30 11:39:31;;;;;;;10.35;3.45;;;25.90;92.00;;;;;;4961719;28;20903;-78
2022/10/30 11:41:59;;;;;;;15.50;3.92;;;26.00;90.80;;;;;;4960547;28;20037;-77
2022/10/30 11:44:42;;;;;;;9.65;3.90;;;26.00;91.30;;;;;;4945815;28;20030;-78
2022/10/30 11:47:08;;;;;;;10.88;4.10;;;26.10;90.60;;;;;;4954026;28;20035;-79
2022/10/30 11:49:54;;;;;;;10.73;3.15;;;26.30;89.90;;;;;;4965318;28;20045;-78
2022/10/30 11:52:21;;;;;;;14.75;3.50;;;26.30;89.80;;;;;;4965919;28;20034;-78
2022/10/30 11:55:09;;;;;;;14.85;3.42;;;26.20;90.10;;;;;;4933364;28;20491;-79
2022/10/30 11:57:36;;;;;;;15.32;3.78;;;26.20;89.90;;;;;;4947034;28;20532;-78
2022/10/30 12:00:18;;;;;;;10.88;3.75;;;26.20;90.00;;;;;;4953757;28;20035;-80
2022/10/30 12:02:45;;;;;;;7.45;2.70;;;26.40;89.30;;;;;;4948018;28;20050;-79
2022/10/30 12:05:31;;;;;;;9.13;3.00;;;26.50;88.80;;;;;;4962988;28;20042;-79
2022/10/30 12:08:05;;;;;;;13.48;3.03;;;26.30;90.10;;;;;;4936261;28;20042;-80
2022/10/30 12:10:58;;;;;;;6.90;3.38;;;26.60;87.90;;;;;;4977088;28;20030;-79
2022/10/30 12:13:23;;;;;;;11.70;3.92;;;26.60;86.30;;;;;;4952259;28;20098;-79
2022/10/30 12:15:50;;;;;;;12.40;3.38;;;26.60;87.60;;;;;;4950170;28;20027;-78
2022/10/30 12:18:20;;;;;;;6.75;3.22;;;26.40;85.80;;;;;;4945348;28;20030;-79
2022/10/30 12:20:48;;;;;;;11.07;2.90;;;26.60;86.30;;;;;;4940900;28;20114;-79
2022/10/30 12:23:19;;;;;;;8.82;3.03;;;26.70;85.20;;;;;;4946166;28;20046;-79
2022/10/30 12:25:46;;;;;;;9.85;3.47;;;26.60;86.10;;;;;;4944195;28;20120;-80
2022/10/30 12:28:19;;;;;;;15.55;3.70;;;26.60;85.80;;;;;;4974243;28;20577;-80
2022/10/30 12:31:18;;;;;;;14.80;3.30;;;26.50;85.50;;;;;;4945920;28;20034;-80
2022/10/30 12:34:17;;;;;;;10.05;3.45;;;26.30;85.20;;;;;;4944270;28;20234;-80
2022/10/30 12:37:06;;;;;;;7.65;3.33;;;26.40;85.40;;;;;;4964903;28;20034;-80
2022/10/30 12:40:01;;;;;;;10.23;3.67;;;26.60;86.80;;;;;;4984380;28;20493;-79
2022/10/30 12:42:26;;;;;;;12.38;3.50;;;26.50;88.00;;;;;;4969709;28;20034;-79
2022/10/30 12:45:11;;;;;;;7.43;2.90;;;26.40;86.20;;;;;;4966841;28;20034;-79
2022/10/30 12:47:54;;;;;;;9.93;3.30;;;26.60;85.80;;;;;;4959806;28;20038;-79
2022/10/30 12:50:29;;;;;;;5.47;3.00;;;26.70;85.70;;;;;;4951923;28;20701;-80
2022/10/30 12:53:08;;;;;;;10.70;3.13;;;26.70;84.30;;;;;;4951854;28;20470;-80